sensor_id;sensor_type;location;lat;lon;timestamp;pressure;altitude;pressure_sealevel;temperature;humidity
70815;BME280;58428;49.478;10.986;2023-03-12T00:01:25;98127.28;;;0.42;100.00
70815;BME280;58428;49.478;10.986;2023-03-12T00:04:08;98128.91;;;0.43;100.00
70815;BME280;58428;49.478;10.986;2023-03-12T00:09:44;98137.41;;;0.30;100.00
70815;BME280;58428;49.478;10.986;2023-03-12T00:12:19;98137.94;;;0.32;100.00
70815;BME280;58428;49.478;10.986;2023-03-12T00:14:44;98138.75;;;0.28;100.00
70815;BME280;58428;49.478;10.986;2023-03-12T00:17:13;98144.34;;;0.26;100.00
70815;BME280;58428;49.478;10.986;2023-03-12T00:19:40;98140.06;;;0.25;100.00
70815;BME280;58428;49.478;10.986;2023-03-12T00:22:05;98137.97;;;0.27;100.00
70815;BME280;58428;49.478;10.986;2023-03-12T00:24:31;98137.41;;;0.30;100.00
70815;BME280;58428;49.478;10.986;2023-03-12T00:27:06;98135.84;;;0.29;100.00
70815;BME280;58428;49.478;10.986;2023-03-12T00:29:31;98150.44;;;0.27;100.00
70815;BME280;58428;49.478;10.986;2023-03-12T00:31:57;98151.53;;;0.16;100.00
70815;BME280;58428;49.478;10.986;2023-03-12T00:34:25;98150.47;;;0.12;100.00
70815;BME280;58428;49.478;10.986;2023-03-12T00:36:53;98150.72;;;0.10;100.00
70815;BME280;58428;49.478;10.986;2023-03-12T00:39:19;98154.44;;;0.04;100.00
70815;BME280;58428;49.478;10.986;2023-03-12T00:41:44;98155.25;;;0.10;100.00
70815;BME280;58428;49.478;10.986;2023-03-12T00:44:10;98145.91;;;0.17;100.00
70815;BME280;58428;49.478;10.986;2023-03-12T00:47:06;98148.88;;;0.16;100.00
70815;BME280;58428;49.478;10.986;2023-03-12T00:50:02;98149.66;;;0.21;100.00
70815;BME280;58428;49.478;10.986;2023-03-12T00:52:46;98143.03;;;0.14;100.00
70815;BME280;58428;49.478;10.986;2023-03-12T00:55:20;98143.25;;;0.17;100.00
70815;BME280;58428;49.478;10.986;2023-03-12T00:58:15;98142.50;;;0.12;100.00
70815;BME280;58428;49.478;10.986;2023-03-12T01:07:34;98139.56;;;-0.01;100.00
70815;BME280;58428;49.478;10.986;2023-03-12T01:10:35;98143.53;;;0.01;100.00
70815;BME280;58428;49.478;10.986;2023-03-12T01:13:21;98140.09;;;0.00;100.00
70815;BME280;58428;49.478;10.986;2023-03-12T01:16:00;98141.41;;;0.13;100.00
70815;BME280;58428;49.478;10.986;2023-03-12T01:22:01;98133.97;;;0.15;100.00
70815;BME280;58428;49.478;10.986;2023-03-12T01:24:30;98142.50;;;0.12;100.00
70815;BME280;58428;49.478;10.986;2023-03-12T01:26:59;98140.06;;;0.05;100.00
70815;BME280;58428;49.478;10.986;2023-03-12T01:29:56;98145.69;;;0.04;100.00
70815;BME280;58428;49.478;10.986;2023-03-12T01:32:27;98141.41;;;-0.02;100.00
70815;BME280;58428;49.478;10.986;2023-03-12T01:35:14;98141.16;;;-0.05;100.00
70815;BME280;58428;49.478;10.986;2023-03-12T01:38:30;98144.88;;;-0.11;100.00
70815;BME280;58428;49.478;10.986;2023-03-12T01:41:06;98150.44;;;-0.23;100.00
70815;BME280;58428;49.478;10.986;2023-03-12T01:49:54;98136.88;;;-0.16;100.00
70815;BME280;58428;49.478;10.986;2023-03-12T01:52:51;98132.66;;;-0.17;100.00
70815;BME280;58428;49.478;10.986;2023-03-12T01:55:20;98134.78;;;-0.19;100.00
70815;BME280;58428;49.478;10.986;2023-03-12T01:57:59;98134.78;;;-0.19;100.00
70815;BME280;58428;49.478;10.986;2023-03-12T02:09:55;98137.16;;;-0.23;100.00
70815;BME280;58428;49.478;10.986;2023-03-12T02:37:31;98123.56;;;0.23;100.00
70815;BME280;58428;49.478;10.986;2023-03-12T02:40:14;98122.00;;;0.27;100.00
70815;BME280;58428;49.478;10.986;2023-03-12T02:46:24;98141.91;;;0.35;100.00
70815;BME280;58428;49.478;10.986;2023-03-12T02:48:56;98134.22;;;0.23;100.00
70815;BME280;58428;49.478;10.986;2023-03-12T02:51:22;98142.47;;;0.27;100.00
70815;BME280;58428;49.478;10.986;2023-03-12T02:56:51;98143.25;;;0.42;100.00
70815;BME280;58428;49.478;10.986;2023-03-12T02:59:50;98141.41;;;0.52;100.00
70815;BME280;58428;49.478;10.986;2023-03-12T03:02:18;98150.16;;;0.63;100.00
70815;BME280;58428;49.478;10.986;2023-03-12T03:04:44;98146.94;;;0.66;100.00
70815;BME280;58428;49.478;10.986;2023-03-12T03:07:17;98143.47;;;0.70;100.00
70815;BME280;58428;49.478;10.986;2023-03-12T03:10:09;98138.41;;;0.69;100.00
70815;BME280;58428;49.478;10.986;2023-03-12T03:12:38;98144.00;;;0.72;100.00
70815;BME280;58428;49.478;10.986;2023-03-12T03:15:30;98143.47;;;0.75;100.00
70815;BME280;58428;49.478;10.986;2023-03-12T03:17:55;98148.25;;;0.78;100.00
70815;BME280;58428;49.478;10.986;2023-03-12T03:20:22;98151.72;;;0.83;100.00
70815;BME280;58428;49.478;10.986;2023-03-12T03:23:00;98148.75;;;0.85;100.00
70815;BME280;58428;49.478;10.986;2023-03-12T03:25:28;98149.81;;;0.89;100.00
70815;BME280;58428;49.478;10.986;2023-03-12T03:28:03;98147.13;;;0.89;100.00
70815;BME280;58428;49.478;10.986;2023-03-12T03:30:33;98146.34;;;0.88;100.00
70815;BME280;58428;49.478;10.986;2023-03-12T03:36:29;98155.38;;;0.92;100.00
70815;BME280;58428;49.478;10.986;2023-03-12T03:39:00;98157.25;;;0.87;100.00
70815;BME280;58428;49.478;10.986;2023-03-12T03:52:20;98162.66;;;0.57;100.00
70815;BME280;58428;49.478;10.986;2023-03-12T03:55:39;98163.50;;;0.43;100.00
70815;BME280;58428;49.478;10.986;2023-03-12T03:58:22;98155.75;;;0.56;100.00
70815;BME280;58428;49.478;10.986;2023-03-12T04:01:12;98164.78;;;0.50;100.00
70815;BME280;58428;49.478;10.986;2023-03-12T04:04:14;98162.16;;;0.45;100.00
70815;BME280;58428;49.478;10.986;2023-03-12T04:07:00;98150.97;;;0.58;100.00
70815;BME280;58428;49.478;10.986;2023-03-12T04:09:36;98147.47;;;0.68;100.00
70815;BME280;58428;49.478;10.986;2023-03-12T04:12:10;98140.81;;;0.70;100.00
70815;BME280;58428;49.478;10.986;2023-03-12T04:14:41;98145.63;;;0.63;100.00
70815;BME280;58428;49.478;10.986;2023-03-12T04:17:08;98141.88;;;0.74;100.00
70815;BME280;58428;49.478;10.986;2023-03-12T04:19:34;98145.34;;;0.79;100.00
70815;BME280;58428;49.478;10.986;2023-03-12T04:21:59;98138.38;;;0.73;100.00
70815;BME280;58428;49.478;10.986;2023-03-12T04:24:26;98143.75;;;0.64;100.00
70815;BME280;58428;49.478;10.986;2023-03-12T04:26:57;98143.50;;;0.60;100.00
70815;BME280;58428;49.478;10.986;2023-03-12T04:29:50;98147.50;;;0.53;100.00
70815;BME280;58428;49.478;10.986;2023-03-12T04:44:36;98141.94;;;0.30;100.00
70815;BME280;58428;49.478;10.986;2023-03-12T04:50:51;98143.00;;;0.43;100.00
70815;BME280;58428;49.478;10.986;2023-03-12T04:53:38;98140.59;;;0.32;100.00
70815;BME280;58428;49.478;10.986;2023-03-12T04:56:43;98140.38;;;0.14;100.00
70815;BME280;58428;49.478;10.986;2023-03-12T04:59:17;98143.56;;;0.16;100.00
70815;BME280;58428;49.478;10.986;2023-03-12T05:01:42;98138.22;;;0.26;100.00
70815;BME280;58428;49.478;10.986;2023-03-12T05:08:26;98144.88;;;0.43;100.00
70815;BME280;58428;49.478;10.986;2023-03-12T05:11:12;98145.13;;;0.27;100.00
70815;BME280;58428;49.478;10.986;2023-03-12T05:13:38;98138.47;;;0.34;100.00
70815;BME280;58428;49.478;10.986;2023-03-12T05:16:10;98140.31;;;0.38;100.00
70815;BME280;58428;49.478;10.986;2023-03-12T05:18:46;98139.81;;;0.32;100.00
70815;BME280;58428;49.478;10.986;2023-03-12T05:52:44;98140.06;;;0.45;100.00
70815;BME280;58428;49.478;10.986;2023-03-12T05:55:51;98144.31;;;0.51;100.00
70815;BME280;58428;49.478;10.986;2023-03-12T05:59:24;98145.91;;;0.57;100.00
70815;BME280;58428;49.478;10.986;2023-03-12T06:02:21;98151.47;;;0.65;100.00
70815;BME280;58428;49.478;10.986;2023-03-12T06:05:12;98151.97;;;0.77;100.00
70815;BME280;58428;49.478;10.986;2023-03-12T06:08:26;98149.84;;;0.84;100.00
70815;BME280;58428;49.478;10.986;2023-03-12T06:11:20;98147.09;;;0.99;100.00
70815;BME280;58428;49.478;10.986;2023-03-12T09:23:05;98073.28;;;6.37;100.00
70815;BME280;58428;49.478;10.986;2023-03-12T09:25:57;98064.75;;;6.73;100.00
70815;BME280;58428;49.478;10.986;2023-03-12T09:28:47;98065.47;;;6.87;100.00
70815;BME280;58428;49.478;10.986;2023-03-12T09:31:26;98071.47;;;6.84;100.00
70815;BME280;58428;49.478;10.986;2023-03-12T09:34:04;98073.91;;;7.02;100.00
70815;BME280;58428;49.478;10.986;2023-03-12T09:37:21;98076.94;;;7.09;100.00
70815;BME280;58428;49.478;10.986;2023-03-12T09:40:34;98086.22;;;6.95;100.00
70815;BME280;58428;49.478;10.986;2023-03-12T09:47:02;98085.91;;;6.96;100.00
70815;BME280;58428;49.478;10.986;2023-03-12T09:49:50;98074.72;;;7.03;100.00
70815;BME280;58428;49.478;10.986;2023-03-12T09:53:03;98068.94;;;7.34;100.00
70815;BME280;58428;49.478;10.986;2023-03-12T09:56:21;98074.38;;;7.60;100.00
70815;BME280;58428;49.478;10.986;2023-03-12T09:58:59;98070.75;;;7.89;100.00
70815;BME280;58428;49.478;10.986;2023-03-12T16:18:18;97968.97;;;10.24;100.00
70815;BME280;58428;49.478;10.986;2023-03-12T16:20:58;97979.16;;;10.06;100.00
70815;BME280;58428;49.478;10.986;2023-03-12T16:23:45;97983.78;;;10.06;100.00
70815;BME280;58428;49.478;10.986;2023-03-12T16:26:51;97979.78;;;9.92;100.00
70815;BME280;58428;49.478;10.986;2023-03-12T16:29:29;97991.22;;;9.89;100.00
70815;BME280;58428;49.478;10.986;2023-03-12T16:32:17;97988.19;;;9.90;100.00
70815;BME280;58428;49.478;10.986;2023-03-12T16:34:54;98001.25;;;9.88;100.00
70815;BME280;58428;49.478;10.986;2023-03-12T16:37:22;97989.84;;;9.83;100.00
70815;BME280;58428;49.478;10.986;2023-03-12T16:40:03;97980.34;;;9.77;100.00
70815;BME280;58428;49.478;10.986;2023-03-12T16:42:49;97984.84;;;9.73;100.00
70815;BME280;58428;49.478;10.986;2023-03-12T16:45:25;97982.81;;;9.70;100.00
70815;BME280;58428;49.478;10.986;2023-03-12T16:48:10;97989.66;;;9.67;100.00
70815;BME280;58428;49.478;10.986;2023-03-12T16:51:10;97989.88;;;9.62;100.00
70815;BME280;58428;49.478;10.986;2023-03-12T16:53:44;97991.09;;;9.65;100.00
70815;BME280;58428;49.478;10.986;2023-03-12T16:56:28;97989.09;;;9.62;100.00
70815;BME280;58428;49.478;10.986;2023-03-12T16:59:25;97995.13;;;9.59;100.00
70815;BME280;58428;49.478;10.986;2023-03-12T17:05:47;97981.50;;;9.55;100.00
70815;BME280;58428;49.478;10.986;2023-03-12T17:08:37;97980.03;;;9.58;100.00
70815;BME280;58428;49.478;10.986;2023-03-12T20:06:21;98049.13;;;9.39;100.00
70815;BME280;58428;49.478;10.986;2023-03-12T20:09:54;98052.28;;;9.41;100.00
70815;BME280;58428;49.478;10.986;2023-03-12T20:13:22;98060.56;;;9.36;100.00
70815;BME280;58428;49.478;10.986;2023-03-12T20:27:13;98066.59;;;9.33;100.00
70815;BME280;58428;49.478;10.986;2023-03-12T20:36:16;98072.75;;;9.42;100.00
70815;BME280;58428;49.478;10.986;2023-03-12T21:48:53;98055.25;;;9.48;100.00
70815;BME280;58428;49.478;10.986;2023-03-12T21:51:18;98052.53;;;9.48;100.00
70815;BME280;58428;49.478;10.986;2023-03-12T21:53:49;98049.22;;;9.51;100.00
70815;BME280;58428;49.478;10.986;2023-03-12T21:56:22;98044.78;;;9.46;100.00
70815;BME280;58428;49.478;10.986;2023-03-12T21:58:54;98043.66;;;9.47;100.00
70815;BME280;58428;49.478;10.986;2023-03-12T22:01:25;98038.66;;;9.37;100.00
70815;BME280;58428;49.478;10.986;2023-03-12T22:03:57;98044.75;;;9.26;100.00
70815;BME280;58428;49.478;10.986;2023-03-12T22:06:25;98036.50;;;9.22;100.00
70815;BME280;58428;49.478;10.986;2023-03-12T22:08:52;98030.16;;;9.18;100.00
70815;BME280;58428;49.478;10.986;2023-03-12T22:11:26;98033.06;;;9.14;100.00
70815;BME280;58428;49.478;10.986;2023-03-12T22:13:57;98035.78;;;9.14;100.00
70815;BME280;58428;49.478;10.986;2023-03-12T22:16:23;98031.31;;;9.18;100.00
70815;BME280;58428;49.478;10.986;2023-03-12T22:19:07;98032.59;;;9.12;100.00
70815;BME280;58428;49.478;10.986;2023-03-12T22:21:33;98031.00;;;9.11;100.00
70815;BME280;58428;49.478;10.986;2023-03-12T22:23:59;98024.38;;;9.08;100.00
70815;BME280;58428;49.478;10.986;2023-03-12T22:26:25;98016.75;;;9.02;100.00
70815;BME280;58428;49.478;10.986;2023-03-12T22:29:22;98022.03;;;8.98;100.00
70815;BME280;58428;49.478;10.986;2023-03-12T22:31:47;98021.88;;;8.95;100.00
70815;BME280;58428;49.478;10.986;2023-03-12T22:34:27;98022.66;;;8.95;100.00
70815;BME280;58428;49.478;10.986;2023-03-12T22:36:53;98021.09;;;8.94;100.00
70815;BME280;58428;49.478;10.986;2023-03-12T22:39:20;98016.50;;;8.95;100.00
70815;BME280;58428;49.478;10.986;2023-03-12T22:41:48;98020.91;;;8.99;100.00
70815;BME280;58428;49.478;10.986;2023-03-12T22:44:18;98017.94;;;8.92;100.00
70815;BME280;58428;49.478;10.986;2023-03-12T22:46:43;98023.97;;;8.89;100.00
70815;BME280;58428;49.478;10.986;2023-03-12T22:49:18;98015.56;;;8.91;100.00
70815;BME280;58428;49.478;10.986;2023-03-12T22:51:46;98014.94;;;8.85;100.00
70815;BME280;58428;49.478;10.986;2023-03-12T22:54:18;98006.06;;;8.85;100.00
70815;BME280;58428;49.478;10.986;2023-03-12T22:56:43;98010.84;;;8.80;100.00
70815;BME280;58428;49.478;10.986;2023-03-12T22:59:10;98006.22;;;8.80;100.00
70815;BME280;58428;49.478;10.986;2023-03-12T23:01:50;97994.34;;;8.81;100.00
70815;BME280;58428;49.478;10.986;2023-03-12T23:04:16;98006.69;;;8.82;100.00
70815;BME280;58428;49.478;10.986;2023-03-12T23:06:41;97996.22;;;8.80;100.00
70815;BME280;58428;49.478;10.986;2023-03-12T23:09:11;97993.22;;;8.82;100.00
70815;BME280;58428;49.478;10.986;2023-03-12T23:11:36;97992.59;;;8.77;100.00
70815;BME280;58428;49.478;10.986;2023-03-12T23:14:07;97990.41;;;8.70;100.00
70815;BME280;58428;49.478;10.986;2023-03-12T23:16:32;97992.00;;;8.71;100.00
70815;BME280;58428;49.478;10.986;2023-03-12T23:19:08;97987.88;;;8.74;100.00
70815;BME280;58428;49.478;10.986;2023-03-12T23:21:56;97991.03;;;8.76;100.00
70815;BME280;58428;49.478;10.986;2023-03-12T23:27:57;97985.94;;;8.74;100.00
70815;BME280;58428;49.478;10.986;2023-03-12T23:30:22;97984.38;;;8.73;100.00
70815;BME280;58428;49.478;10.986;2023-03-12T23:32:52;97981.34;;;8.75;100.00
70815;BME280;58428;49.478;10.986;2023-03-12T23:35:21;97974.22;;;8.70;100.00
70815;BME280;58428;49.478;10.986;2023-03-12T23:37:49;97976.75;;;8.75;100.00
70815;BME280;58428;49.478;10.986;2023-03-12T23:40:15;97970.59;;;8.66;100.00
70815;BME280;58428;49.478;10.986;2023-03-12T23:42:43;97967.91;;;8.66;100.00
70815;BME280;58428;49.478;10.986;2023-03-12T23:45:12;97966.19;;;8.62;100.00
70815;BME280;58428;49.478;10.986;2023-03-12T23:47:41;97964.63;;;8.52;100.00
70815;BME280;58428;49.478;10.986;2023-03-12T23:50:08;97961.78;;;8.49;100.00
70815;BME280;58428;49.478;10.986;2023-03-12T23:52:34;97959.41;;;8.47;100.00
70815;BME280;58428;49.478;10.986;2023-03-12T23:55:00;97961.16;;;8.43;100.00
70815;BME280;58428;49.478;10.986;2023-03-12T23:57:29;97958.66;;;8.39;100.00
